createdAt,value
2019-01-18T00:03:37.909Z,44.79
2019-01-18T00:08:41.384Z,44.87
2019-01-18T00:13:44.857Z,44.87
2019-01-18T00:18:48.329Z,44.94
2019-01-18T00:23:51.808Z,44.93
2019-01-18T00:28:55.286Z,44.97
2019-01-18T00:33:58.771Z,45.00
2019-01-18T00:39:02.250Z,45.03
2019-01-18T00:44:05.735Z,45.03
2019-01-18T00:49:09.215Z,45.06
2019-01-18T00:54:12.694Z,45.03
2019-01-18T00:59:16.174Z,45.06
2019-01-18T01:04:19.644Z,45.08
2019-01-18T01:09:23.121Z,45.08
2019-01-18T01:14:26.590Z,45.12
2019-01-18T01:19:30.065Z,45.10
2019-01-18T01:24:33.541Z,45.11
2019-01-18T01:29:42.925Z,45.16
2019-01-18T01:34:42.288Z,45.13
2019-01-18T01:39:45.769Z,45.16
2019-01-18T01:44:49.251Z,45.19
2019-01-18T01:49:52.725Z,45.21
2019-01-18T01:54:56.270Z,45.20
2019-01-18T01:59:59.741Z,45.21
2019-01-18T02:05:03.564Z,45.22
2019-01-18T02:10:12.269Z,45.24
2019-01-18T02:15:21.845Z,45.25
2019-01-18T02:20:25.488Z,45.23
2019-01-18T02:25:28.966Z,45.26
2019-01-18T02:30:32.447Z,45.25
2019-01-18T02:35:35.906Z,45.28
2019-01-18T02:40:39.380Z,45.26
2019-01-18T02:45:42.839Z,45.25
2019-01-18T02:50:46.309Z,45.24
2019-01-18T02:55:49.776Z,45.27
2019-01-18T03:00:53.233Z,45.27
2019-01-18T03:05:56.695Z,45.28
2019-01-18T03:11:00.182Z,45.31
2019-01-18T03:16:03.725Z,45.30
2019-01-18T03:21:07.183Z,45.33
2019-01-18T03:26:10.643Z,45.31
2019-01-18T03:31:14.105Z,45.33
2019-01-18T03:36:17.564Z,45.31
2019-01-18T03:41:21.024Z,45.32
2019-01-18T03:46:24.482Z,45.32
2019-01-18T03:51:27.945Z,45.32
2019-01-18T03:56:31.408Z,45.34
2019-01-18T04:01:34.870Z,45.31
2019-01-18T04:06:38.332Z,45.32
2019-01-18T04:11:41.790Z,45.35
2019-01-18T04:16:45.323Z,45.33
2019-01-18T04:21:48.783Z,45.36
2019-01-18T04:26:52.242Z,45.38
2019-01-18T04:31:55.706Z,45.39
2019-01-18T04:36:59.165Z,45.38
2019-01-18T04:42:02.627Z,45.40
2019-01-18T04:47:06.087Z,45.32
2019-01-18T04:52:09.559Z,45.31
2019-01-18T04:57:13.023Z,45.28
2019-01-18T05:02:16.502Z,45.24
2019-01-18T05:07:19.977Z,45.21
2019-01-18T05:12:23.440Z,45.16
2019-01-18T05:17:26.897Z,45.14
2019-01-18T05:22:30.363Z,45.16
2019-01-18T05:27:33.823Z,45.19
2019-01-18T05:32:37.287Z,45.20
2019-01-18T05:37:40.752Z,45.20
2019-01-18T05:42:44.463Z,45.23
2019-01-18T05:47:47.920Z,45.25
2019-01-18T05:52:51.376Z,45.27
2019-01-18T05:57:54.836Z,45.29
2019-01-18T06:02:58.294Z,45.28
2019-01-18T06:08:01.750Z,45.30
2019-01-18T06:13:05.584Z,45.29
2019-01-18T06:18:09.062Z,45.31
2019-01-18T06:23:12.524Z,45.29
2019-01-18T06:28:15.978Z,45.29
2019-01-18T06:33:19.437Z,45.26
2019-01-18T06:38:22.900Z,45.21
2019-01-18T06:43:26.369Z,45.21
2019-01-18T06:48:30.196Z,45.18
2019-01-18T06:53:33.664Z,45.15
2019-01-18T06:58:37.203Z,45.08
2019-01-18T07:03:40.680Z,45.07
2019-01-18T07:08:44.141Z,45.03
2019-01-18T07:13:47.632Z,45.05
2019-01-18T07:18:51.066Z,45.25
2019-01-18T07:23:54.532Z,45.37
2019-01-18T07:28:58.001Z,45.54
2019-01-18T07:34:01.462Z,45.59
2019-01-18T07:39:07.034Z,45.59
2019-01-18T07:44:10.498Z,45.62
2019-01-18T07:49:13.970Z,45.79
2019-01-18T07:54:17.441Z,45.99
2019-01-18T07:59:20.909Z,45.96
2019-01-18T08:04:24.380Z,35.47
2019-01-18T08:09:27.840Z,25.49
2019-01-18T08:14:31.303Z,24.43
2019-01-18T08:19:34.769Z,26.80
2019-01-18T08:24:38.240Z,29.29
2019-01-18T08:29:41.714Z,31.75
2019-01-18T08:34:45.176Z,33.75
2019-01-18T08:39:48.647Z,34.97
2019-01-18T08:44:52.111Z,35.87
2019-01-18T08:49:55.575Z,36.56
2019-01-18T08:54:59.034Z,37.16
2019-01-18T09:00:02.500Z,37.60
2019-01-18T09:05:09.020Z,37.96
2019-01-18T09:10:15.031Z,38.35
2019-01-18T09:15:18.562Z,38.56
2019-01-18T09:20:27.595Z,38.75
2019-01-18T09:25:31.059Z,38.98
2019-01-18T09:30:35.159Z,39.29
2019-01-18T09:35:38.794Z,39.61
2019-01-18T09:40:42.269Z,39.81
2019-01-18T09:45:45.734Z,39.93
2019-01-18T09:50:49.197Z,40.06
2019-01-18T09:55:52.657Z,40.13
2019-01-18T10:00:56.255Z,40.14
2019-01-18T10:05:59.725Z,39.96
2019-01-18T10:11:03.194Z,39.80
2019-01-18T10:16:06.669Z,39.65
2019-01-18T10:21:10.136Z,39.77
2019-01-18T10:26:13.600Z,39.77
2019-01-18T10:31:17.103Z,40.17
2019-01-18T10:36:20.559Z,40.55
2019-01-18T10:41:24.039Z,40.75
2019-01-18T10:46:27.505Z,41.16
2019-01-18T10:51:30.997Z,41.67
2019-01-18T10:56:34.477Z,42.07
2019-01-18T11:01:37.963Z,41.96
2019-01-18T11:06:41.445Z,41.89
2019-01-18T11:11:44.923Z,42.11
2019-01-18T11:16:48.402Z,42.20
2019-01-18T11:21:51.955Z,42.41
2019-01-18T11:26:55.434Z,42.41
2019-01-18T11:31:58.920Z,43.64
2019-01-18T13:27:20.783Z,42.54
2019-01-18T13:33:20.686Z,42.75
2019-01-18T14:16:59.962Z,42.79
2019-01-18T14:22:03.434Z,43.14
2019-01-18T14:27:06.903Z,43.14
2019-01-18T14:32:10.393Z,43.37
2019-01-18T14:37:13.854Z,43.61
2019-01-18T14:42:17.323Z,43.73
2019-01-18T14:47:20.790Z,43.75
2019-01-18T14:52:24.254Z,43.68
2019-01-18T14:57:27.718Z,43.61
2019-01-18T15:02:31.188Z,43.59
2019-01-18T15:07:34.655Z,43.59
2019-01-18T15:12:38.191Z,43.61
2019-01-18T15:17:41.667Z,43.61
2019-01-18T15:22:45.130Z,43.64
2019-01-18T15:27:48.935Z,43.65
2019-01-18T15:32:52.403Z,43.67
2019-01-18T15:37:55.872Z,43.64
2019-01-18T15:43:00.712Z,43.70
2019-01-18T15:48:04.247Z,43.72
2019-01-18T15:53:07.955Z,43.76
2019-01-18T15:58:11.425Z,43.81
2019-01-18T16:03:16.173Z,43.81
2019-01-18T16:08:19.772Z,43.85
2019-01-18T16:13:23.237Z,43.91
2019-01-18T16:18:26.709Z,43.94
2019-01-18T16:23:30.172Z,43.97
2019-01-18T16:28:33.654Z,44.00
2019-01-18T16:33:37.124Z,44.02
2019-01-18T16:38:40.595Z,44.03
2019-01-18T16:43:44.059Z,44.05
2019-01-18T16:48:47.527Z,44.05
2019-01-18T16:53:51.001Z,44.09
2019-01-18T16:58:54.466Z,44.15
2019-01-18T17:03:57.934Z,44.22
2019-01-18T17:09:01.404Z,44.32
2019-01-18T17:14:05.209Z,44.37
2019-01-18T17:19:08.678Z,44.42
2019-01-18T17:24:12.144Z,44.40
2019-01-18T17:29:15.607Z,44.46
2019-01-18T17:34:19.076Z,44.51
2019-01-18T17:39:25.590Z,44.65
2019-01-18T17:44:51.346Z,44.67
2019-01-18T17:50:14.386Z,44.69
2019-01-18T17:55:29.926Z,44.74
2019-01-18T18:00:54.749Z,44.75
2019-01-18T18:06:01.268Z,44.77
2019-01-18T18:11:10.291Z,44.87
2019-01-18T18:16:22.632Z,44.93
2019-01-18T18:21:41.527Z,44.98
2019-01-18T18:26:53.369Z,44.99
2019-01-18T18:32:22.336Z,45.04
2019-01-18T18:37:43.638Z,45.07
2019-01-18T18:42:56.219Z,45.08
2019-01-18T18:48:14.972Z,45.05
2019-01-18T18:53:36.384Z,45.05
2019-01-18T18:59:02.671Z,45.08
2019-01-18T19:04:10.095Z,45.12
2019-01-18T19:09:34.537Z,45.15
2019-01-18T19:15:13.959Z,45.20
2019-01-18T19:20:38.679Z,45.22
2019-01-18T19:25:45.222Z,45.22
2019-01-18T19:31:00.222Z,45.20
2019-01-18T19:36:24.964Z,45.21
2019-01-18T19:41:34.373Z,45.21
2019-01-18T19:46:52.938Z,45.21
2019-01-18T19:52:05.043Z,45.29
2019-01-18T19:57:14.462Z,45.29
2019-01-18T20:02:49.857Z,45.30
2019-01-18T20:07:59.104Z,45.30
2019-01-18T20:13:28.406Z,45.33
2019-01-18T20:18:37.691Z,45.33
2019-01-18T20:23:49.434Z,45.37
2019-01-18T20:29:07.819Z,45.35
2019-01-18T20:34:50.689Z,45.33
2019-01-18T20:40:00.389Z,45.42
2019-01-18T20:45:25.031Z,45.52
2019-01-18T20:50:54.282Z,45.50
2019-01-18T20:56:17.364Z,45.56
2019-01-18T21:01:36.100Z,45.56
2019-01-18T21:07:06.784Z,45.53
2019-01-18T21:12:16.347Z,45.57
2019-01-18T21:17:34.929Z,45.59
2019-01-18T21:22:53.423Z,45.63
2019-01-18T21:28:22.877Z,45.63
2019-01-18T21:33:46.028Z,45.62
2019-01-18T21:38:55.265Z,45.69
2019-01-18T21:44:25.856Z,45.67
2019-01-18T21:49:35.270Z,45.69
2019-01-18T21:54:53.695Z,45.74
2019-01-18T22:00:06.229Z,45.78
2019-01-18T22:05:47.836Z,45.80
2019-01-18T22:10:57.104Z,45.82
2019-01-18T22:16:15.652Z,45.86
2019-01-18T22:21:30.799Z,45.79
2019-01-18T22:26:52.518Z,45.96
2019-01-18T22:32:08.440Z,45.92
2019-01-18T22:37:45.159Z,45.98
2019-01-18T22:43:08.194Z,45.96
2019-01-18T22:48:20.450Z,45.96
2019-01-18T22:53:51.394Z,45.97
2019-01-18T22:58:57.928Z,45.98
2019-01-18T23:04:22.629Z,45.96
2019-01-18T23:09:50.248Z,45.98
2019-01-18T23:15:05.047Z,45.95
2019-01-18T23:20:28.877Z,45.96
2019-01-18T23:25:44.242Z,45.97
2019-01-18T23:30:53.593Z,45.94
2019-01-18T23:36:00.118Z,45.95
2019-01-18T23:41:12.779Z,45.93
2019-01-18T23:46:28.127Z,45.90
2019-01-18T23:51:55.497Z,45.94
2019-01-18T23:57:10.888Z,45.91
